sensor_id;sensor_type;location;lat;lon;timestamp;pressure;altitude;pressure_sealevel;temperature;humidity
8039;BME280;4062;49.844;8.120;2023-06-19T00:01:07;98830.03;;;19.42;50.13
8039;BME280;4062;49.844;8.120;2023-06-19T00:03:09;98823.78;;;19.42;50.33
8039;BME280;4062;49.844;8.120;2023-06-19T00:05:11;98826.47;;;19.42;50.42
8039;BME280;4062;49.844;8.120;2023-06-19T00:07:14;98806.88;;;19.41;50.30
8039;BME280;4062;49.844;8.120;2023-06-19T00:09:15;98805.16;;;19.40;50.39
8039;BME280;4062;49.844;8.120;2023-06-19T00:11:17;98792.63;;;19.41;50.33
8039;BME280;4062;49.844;8.120;2023-06-19T00:13:19;98790.06;;;19.39;50.40
8039;BME280;4062;49.844;8.120;2023-06-19T00:15:21;98787.38;;;19.39;50.40
8039;BME280;4062;49.844;8.120;2023-06-19T00:17:22;98787.38;;;19.39;50.31
8039;BME280;4062;49.844;8.120;2023-06-19T00:19:27;98791.00;;;19.38;50.74
8039;BME280;4062;49.844;8.120;2023-06-19T00:21:29;98782.97;;;19.38;50.49
8039;BME280;4062;49.844;8.120;2023-06-19T00:23:31;98789.19;;;19.38;50.64
8039;BME280;4062;49.844;8.120;2023-06-19T00:25:32;98782.13;;;19.37;50.49
8039;BME280;4062;49.844;8.120;2023-06-19T00:27:33;98770.53;;;19.37;50.45
8039;BME280;4062;49.844;8.120;2023-06-19T00:29:35;98773.22;;;19.37;50.77
8039;BME280;4062;49.844;8.120;2023-06-19T00:31:37;98764.34;;;19.36;50.60
8039;BME280;4062;49.844;8.120;2023-06-19T00:33:38;98758.13;;;19.36;50.85
8039;BME280;4062;49.844;8.120;2023-06-19T00:35:40;98752.75;;;19.36;50.61
8039;BME280;4062;49.844;8.120;2023-06-19T00:37:42;98751.91;;;19.35;50.77
8039;BME280;4062;49.844;8.120;2023-06-19T00:39:45;98757.28;;;19.35;50.82
8039;BME280;4062;49.844;8.120;2023-06-19T00:41:47;98750.19;;;19.34;50.78
8039;BME280;4062;49.844;8.120;2023-06-19T00:43:49;98743.00;;;19.35;50.83
8039;BME280;4062;49.844;8.120;2023-06-19T00:45:50;98740.31;;;19.35;50.72
8039;BME280;4062;49.844;8.120;2023-06-19T00:47:55;98743.97;;;19.34;50.83
8039;BME280;4062;49.844;8.120;2023-06-19T00:49:57;98749.31;;;19.34;50.85
8039;BME280;4062;49.844;8.120;2023-06-19T00:51:59;98751.16;;;19.33;50.83
8039;BME280;4062;49.844;8.120;2023-06-19T00:54:00;98746.75;;;19.32;50.73
8039;BME280;4062;49.844;8.120;2023-06-19T00:56:02;98754.81;;;19.32;50.91
8039;BME280;4062;49.844;8.120;2023-06-19T00:58:05;98766.47;;;19.31;51.06
8039;BME280;4062;49.844;8.120;2023-06-19T01:00:07;98766.47;;;19.31;51.32
8039;BME280;4062;49.844;8.120;2023-06-19T01:02:10;98786.94;;;19.32;50.93
8039;BME280;4062;49.844;8.120;2023-06-19T01:04:13;98778.06;;;19.32;51.01
8039;BME280;4062;49.844;8.120;2023-06-19T01:06:20;98779.88;;;19.31;51.00
8039;BME280;4062;49.844;8.120;2023-06-19T01:08:48;98809.31;;;19.31;51.41
8039;BME280;4062;49.844;8.120;2023-06-19T01:10:54;98821.00;;;19.30;50.98
8039;BME280;4062;49.844;8.120;2023-06-19T01:13:10;98837.06;;;19.30;51.16
8039;BME280;4062;49.844;8.120;2023-06-19T01:15:12;98831.72;;;19.30;51.35
8039;BME280;4062;49.844;8.120;2023-06-19T01:17:16;98838.91;;;19.30;51.37
8039;BME280;4062;49.844;8.120;2023-06-19T01:19:21;98838.91;;;19.30;51.27
8039;BME280;4062;49.844;8.120;2023-06-19T01:21:23;98825.50;;;19.30;51.44
8039;BME280;4062;49.844;8.120;2023-06-19T01:23:24;98834.50;;;19.29;51.24
8039;BME280;4062;49.844;8.120;2023-06-19T01:25:29;98837.19;;;19.29;51.44
8039;BME280;4062;49.844;8.120;2023-06-19T01:27:31;98822.06;;;19.28;51.39
8039;BME280;4062;49.844;8.120;2023-06-19T01:29:34;98825.63;;;19.28;51.36
8039;BME280;4062;49.844;8.120;2023-06-19T01:32:17;98819.41;;;19.28;51.56
8039;BME280;4062;49.844;8.120;2023-06-19T01:34:11;98824.75;;;19.28;51.53
8039;BME280;4062;49.844;8.120;2023-06-19T01:36:17;98821.25;;;19.27;51.49
8039;BME280;4062;49.844;8.120;2023-06-19T01:38:20;98828.41;;;19.27;51.58
8039;BME280;4062;49.844;8.120;2023-06-19T01:40:23;98839.09;;;19.27;51.59
8039;BME280;4062;49.844;8.120;2023-06-19T01:42:29;98834.72;;;19.26;51.57
8039;BME280;4062;49.844;8.120;2023-06-19T01:44:31;98840.94;;;19.26;51.54
8039;BME280;4062;49.844;8.120;2023-06-19T01:46:33;98834.72;;;19.26;51.72
8039;BME280;4062;49.844;8.120;2023-06-19T01:48:35;98836.53;;;19.25;51.63
8039;BME280;4062;49.844;8.120;2023-06-19T01:50:37;98842.75;;;19.26;51.63
8039;BME280;4062;49.844;8.120;2023-06-19T01:52:41;98842.88;;;19.24;51.79
8039;BME280;4062;49.844;8.120;2023-06-19T01:54:42;98841.16;;;19.23;51.63
8039;BME280;4062;49.844;8.120;2023-06-19T01:56:44;98847.25;;;19.25;52.00
8039;BME280;4062;49.844;8.120;2023-06-19T01:58:48;98843.72;;;19.25;51.89
8039;BME280;4062;49.844;8.120;2023-06-19T02:00:50;98842.88;;;19.24;51.83
8039;BME280;4062;49.844;8.120;2023-06-19T02:02:52;98842.03;;;19.24;51.97
8039;BME280;4062;49.844;8.120;2023-06-19T02:04:53;98844.78;;;19.22;52.06
8039;BME280;4062;49.844;8.120;2023-06-19T02:06:55;98839.34;;;19.24;52.05
8039;BME280;4062;49.844;8.120;2023-06-19T02:08:56;98841.16;;;19.23;52.02
8039;BME280;4062;49.844;8.120;2023-06-19T02:11:00;98844.78;;;19.22;51.78
8039;BME280;4062;49.844;8.120;2023-06-19T02:13:03;98840.31;;;19.23;52.10
8039;BME280;4062;49.844;8.120;2023-06-19T02:15:05;98837.63;;;19.23;51.80
8039;BME280;4062;49.844;8.120;2023-06-19T02:17:08;98842.09;;;19.22;51.80
8039;BME280;4062;49.844;8.120;2023-06-19T02:19:13;98849.28;;;19.21;52.12
8039;BME280;4062;49.844;8.120;2023-06-19T02:21:14;98849.28;;;19.21;52.15
8039;BME280;4062;49.844;8.120;2023-06-19T02:23:16;98857.34;;;19.21;52.07
8039;BME280;4062;49.844;8.120;2023-06-19T02:25:18;98853.78;;;19.21;51.97
8039;BME280;4062;49.844;8.120;2023-06-19T02:27:20;98855.50;;;19.22;52.01
8039;BME280;4062;49.844;8.120;2023-06-19T02:29:22;98854.72;;;19.20;51.95
8039;BME280;4062;49.844;8.120;2023-06-19T02:31:24;98855.59;;;19.20;52.41
8039;BME280;4062;49.844;8.120;2023-06-19T02:33:26;98854.72;;;19.20;52.02
8039;BME280;4062;49.844;8.120;2023-06-19T02:35:27;98857.41;;;19.20;52.08
8039;BME280;4062;49.844;8.120;2023-06-19T02:37:31;98859.13;;;19.21;52.31
8039;BME280;4062;49.844;8.120;2023-06-19T02:39:33;98852.06;;;19.20;52.26
8039;BME280;4062;49.844;8.120;2023-06-19T02:41:34;98857.41;;;19.20;52.55
8039;BME280;4062;49.844;8.120;2023-06-19T02:43:39;98865.44;;;19.20;52.33
8039;BME280;4062;49.844;8.120;2023-06-19T02:45:41;98864.59;;;19.19;52.29
8039;BME280;4062;49.844;8.120;2023-06-19T02:47:42;98882.50;;;19.19;52.23
8039;BME280;4062;49.844;8.120;2023-06-19T02:49:46;98876.28;;;19.18;52.63
8039;BME280;4062;49.844;8.120;2023-06-19T02:51:47;98874.47;;;19.19;52.58
8039;BME280;4062;49.844;8.120;2023-06-19T02:53:48;98870.06;;;19.18;52.35
8039;BME280;4062;49.844;8.120;2023-06-19T02:55:49;98877.16;;;19.19;52.43
8039;BME280;4062;49.844;8.120;2023-06-19T02:57:51;98870.91;;;19.18;52.51
8039;BME280;4062;49.844;8.120;2023-06-19T02:59:53;98875.44;;;19.18;52.59
8039;BME280;4062;49.844;8.120;2023-06-19T03:01:55;98887.88;;;19.19;52.67
8039;BME280;4062;49.844;8.120;2023-06-19T03:03:56;98891.50;;;19.18;52.75
8039;BME280;4062;49.844;8.120;2023-06-19T03:06:06;98885.25;;;19.17;52.71
8039;BME280;4062;49.844;8.120;2023-06-19T03:08:08;98891.50;;;19.18;52.69
8039;BME280;4062;49.844;8.120;2023-06-19T03:10:10;98887.94;;;19.17;52.78
8039;BME280;4062;49.844;8.120;2023-06-19T03:12:11;98906.69;;;19.17;52.56
8039;BME280;4062;49.844;8.120;2023-06-19T03:14:14;98912.91;;;19.18;52.88
8039;BME280;4062;49.844;8.120;2023-06-19T03:16:19;98905.84;;;19.17;52.94
8039;BME280;4062;49.844;8.120;2023-06-19T03:18:21;98908.53;;;19.17;52.90
8039;BME280;4062;49.844;8.120;2023-06-19T03:20:24;98907.66;;;19.16;52.63
8039;BME280;4062;49.844;8.120;2023-06-19T03:22:30;98917.50;;;19.16;52.74
8039;BME280;4062;49.844;8.120;2023-06-19T03:24:32;98918.34;;;19.16;52.62
8039;BME280;4062;49.844;8.120;2023-06-19T03:26:47;98917.50;;;19.16;53.07
8039;BME280;4062;49.844;8.120;2023-06-19T03:28:49;98922.00;;;19.15;53.08
8039;BME280;4062;49.844;8.120;2023-06-19T03:30:50;98923.72;;;19.16;52.95
8039;BME280;4062;49.844;8.120;2023-06-19T03:32:57;98929.06;;;19.16;52.64
8039;BME280;4062;49.844;8.120;2023-06-19T03:35:12;98927.34;;;19.15;52.84
8039;BME280;4062;49.844;8.120;2023-06-19T03:37:18;98940.75;;;19.15;53.02
8039;BME280;4062;49.844;8.120;2023-06-19T03:39:19;98939.91;;;19.15;53.02
8039;BME280;4062;49.844;8.120;2023-06-19T03:41:21;98950.59;;;19.15;52.83
8039;BME280;4062;49.844;8.120;2023-06-19T03:43:25;98948.78;;;19.15;53.04
8039;BME280;4062;49.844;8.120;2023-06-19T03:45:30;98953.28;;;19.15;53.17
8039;BME280;4062;49.844;8.120;2023-06-19T03:47:31;98943.41;;;19.15;53.09
8039;BME280;4062;49.844;8.120;2023-06-19T03:49:33;98942.56;;;19.15;53.02
8039;BME280;4062;49.844;8.120;2023-06-19T03:51:35;98935.50;;;19.14;52.94
8039;BME280;4062;49.844;8.120;2023-06-19T03:53:36;98944.41;;;19.14;52.96
8039;BME280;4062;49.844;8.120;2023-06-19T03:55:38;98942.56;;;19.15;53.16
8039;BME280;4062;49.844;8.120;2023-06-19T03:57:39;98951.56;;;19.14;53.21
8039;BME280;4062;49.844;8.120;2023-06-19T03:59:48;98949.84;;;19.13;53.18
8039;BME280;4062;49.844;8.120;2023-06-19T04:01:50;98956.91;;;19.14;53.00
8039;BME280;4062;49.844;8.120;2023-06-19T04:03:52;98958.75;;;19.13;53.13
8039;BME280;4062;49.844;8.120;2023-06-19T04:05:54;98969.47;;;19.13;53.13
8039;BME280;4062;49.844;8.120;2023-06-19T04:07:55;98969.47;;;19.13;53.28
8039;BME280;4062;49.844;8.120;2023-06-19T04:09:56;98973.94;;;19.13;53.12
8039;BME280;4062;49.844;8.120;2023-06-19T04:11:58;98973.94;;;19.13;53.09
8039;BME280;4062;49.844;8.120;2023-06-19T04:13:59;98973.09;;;19.12;53.42
8039;BME280;4062;49.844;8.120;2023-06-19T04:16:01;98984.66;;;19.13;53.32
8039;BME280;4062;49.844;8.120;2023-06-19T04:18:02;98977.56;;;19.12;53.23
8039;BME280;4062;49.844;8.120;2023-06-19T04:20:05;98975.78;;;19.12;53.36
8039;BME280;4062;49.844;8.120;2023-06-19T04:22:15;98972.22;;;19.12;53.32
8039;BME280;4062;49.844;8.120;2023-06-19T04:24:17;98979.31;;;19.13;53.37
8039;BME280;4062;49.844;8.120;2023-06-19T04:26:18;98980.25;;;19.12;53.27
8039;BME280;4062;49.844;8.120;2023-06-19T04:28:20;98985.63;;;19.12;53.62
8039;BME280;4062;49.844;8.120;2023-06-19T04:30:22;98990.13;;;19.11;53.31
8039;BME280;4062;49.844;8.120;2023-06-19T04:32:24;98983.88;;;19.11;53.37
8039;BME280;4062;49.844;8.120;2023-06-19T04:34:25;98990.13;;;19.11;53.32
8039;BME280;4062;49.844;8.120;2023-06-19T04:36:40;98983.03;;;19.10;53.36
8039;BME280;4062;49.844;8.120;2023-06-19T04:38:44;98983.03;;;19.10;53.54
8039;BME280;4062;49.844;8.120;2023-06-19T04:40:47;98987.56;;;19.10;53.46
8039;BME280;4062;49.844;8.120;2023-06-19T04:42:48;98984.75;;;19.11;53.44
8039;BME280;4062;49.844;8.120;2023-06-19T04:44:50;98982.19;;;19.10;53.33
8039;BME280;4062;49.844;8.120;2023-06-19T04:46:52;98984.88;;;19.10;53.53
8039;BME280;4062;49.844;8.120;2023-06-19T04:49:02;98975.00;;;19.10;53.55
8039;BME280;4062;49.844;8.120;2023-06-19T04:51:06;98976.84;;;19.10;53.49
8039;BME280;4062;49.844;8.120;2023-06-19T04:53:07;98978.53;;;19.11;53.52
8039;BME280;4062;49.844;8.120;2023-06-19T04:55:09;98980.38;;;19.10;53.33
8039;BME280;4062;49.844;8.120;2023-06-19T04:57:11;98982.19;;;19.10;53.49
8039;BME280;4062;49.844;8.120;2023-06-19T04:59:12;98982.19;;;19.10;53.32
8039;BME280;4062;49.844;8.120;2023-06-19T05:01:19;98975.97;;;19.09;53.60
8039;BME280;4062;49.844;8.120;2023-06-19T05:03:26;98979.53;;;19.10;53.47
8039;BME280;4062;49.844;8.120;2023-06-19T05:05:28;98977.81;;;19.09;53.49
8039;BME280;4062;49.844;8.120;2023-06-19T05:07:30;98975.97;;;19.09;53.70
8039;BME280;4062;49.844;8.120;2023-06-19T05:09:34;98972.44;;;19.09;53.72
8039;BME280;4062;49.844;8.120;2023-06-19T05:11:36;98979.53;;;19.10;53.64
8039;BME280;4062;49.844;8.120;2023-06-19T05:13:37;98986.69;;;19.09;53.77
8039;BME280;4062;49.844;8.120;2023-06-19T05:15:39;98975.13;;;19.09;53.59
8039;BME280;4062;49.844;8.120;2023-06-19T05:17:40;98974.25;;;19.08;53.68
8039;BME280;4062;49.844;8.120;2023-06-19T05:19:42;98976.94;;;19.08;53.63
8039;BME280;4062;49.844;8.120;2023-06-19T05:21:43;98978.66;;;19.09;53.58
8039;BME280;4062;49.844;8.120;2023-06-19T05:23:47;98975.13;;;19.09;53.85
8039;BME280;4062;49.844;8.120;2023-06-19T05:25:51;98969.78;;;19.09;53.96
8039;BME280;4062;49.844;8.120;2023-06-19T05:27:53;98968.91;;;19.08;53.65
8039;BME280;4062;49.844;8.120;2023-06-19T05:29:55;98976.94;;;19.08;53.90
8039;BME280;4062;49.844;8.120;2023-06-19T05:31:56;98976.09;;;19.08;53.89
8039;BME280;4062;49.844;8.120;2023-06-19T05:33:58;98977.88;;;19.07;54.01
8039;BME280;4062;49.844;8.120;2023-06-19T05:35:59;98983.16;;;19.09;53.91
8039;BME280;4062;49.844;8.120;2023-06-19T05:38:02;98985.84;;;19.09;54.06
8039;BME280;4062;49.844;8.120;2023-06-19T05:40:13;98993.00;;;19.08;53.83
8039;BME280;4062;49.844;8.120;2023-06-19T05:42:15;98986.78;;;19.08;53.95
8039;BME280;4062;49.844;8.120;2023-06-19T05:44:16;98991.28;;;19.07;53.83
8039;BME280;4062;49.844;8.120;2023-06-19T05:46:19;98990.31;;;19.08;53.96
8039;BME280;4062;49.844;8.120;2023-06-19T05:48:21;98991.28;;;19.07;53.83
8039;BME280;4062;49.844;8.120;2023-06-19T05:50:25;98989.47;;;19.08;53.89
8039;BME280;4062;49.844;8.120;2023-06-19T05:52:26;98999.31;;;19.07;54.22
8039;BME280;4062;49.844;8.120;2023-06-19T05:54:28;98994.81;;;19.08;54.03
8039;BME280;4062;49.844;8.120;2023-06-19T05:56:36;98990.44;;;19.06;53.98
8039;BME280;4062;49.844;8.120;2023-06-19T05:58:37;99001.97;;;19.07;53.88
8039;BME280;4062;49.844;8.120;2023-06-19T06:00:41;99009.16;;;19.06;53.93
8039;BME280;4062;49.844;8.120;2023-06-19T06:02:44;99015.38;;;19.07;53.98
8039;BME280;4062;49.844;8.120;2023-06-19T06:04:46;99014.53;;;19.06;53.88
8039;BME280;4062;49.844;8.120;2023-06-19T06:06:47;99006.50;;;19.06;54.14
8039;BME280;4062;49.844;8.120;2023-06-19T06:08:49;99020.72;;;19.07;54.11
8039;BME280;4062;49.844;8.120;2023-06-19T06:10:50;99018.03;;;19.07;54.14
8039;BME280;4062;49.844;8.120;2023-06-19T06:12:51;99014.53;;;19.06;54.02
8039;BME280;4062;49.844;8.120;2023-06-19T06:14:53;99015.38;;;19.07;53.98
8039;BME280;4062;49.844;8.120;2023-06-19T06:17:06;99019.88;;;19.06;53.95
8039;BME280;4062;49.844;8.120;2023-06-19T06:19:07;99017.19;;;19.06;54.03
8039;BME280;4062;49.844;8.120;2023-06-19T06:21:09;99017.19;;;19.06;54.21
8039;BME280;4062;49.844;8.120;2023-06-19T06:23:10;99009.16;;;19.06;54.12
8039;BME280;4062;49.844;8.120;2023-06-19T06:25:12;99011.84;;;19.06;54.11
8039;BME280;4062;49.844;8.120;2023-06-19T06:27:14;99011.84;;;19.06;54.11
8039;BME280;4062;49.844;8.120;2023-06-19T06:29:15;99007.34;;;19.07;53.98
8039;BME280;4062;49.844;8.120;2023-06-19T06:31:17;99007.34;;;19.07;54.24
8039;BME280;4062;49.844;8.120;2023-06-19T06:33:18;99013.56;;;19.08;54.30
8039;BME280;4062;49.844;8.120;2023-06-19T06:35:20;99013.56;;;19.08;54.14
8039;BME280;4062;49.844;8.120;2023-06-19T06:37:30;99011.72;;;19.08;54.01
8039;BME280;4062;49.844;8.120;2023-06-19T06:39:32;99034.03;;;19.09;54.19
8039;BME280;4062;49.844;8.120;2023-06-19T06:41:35;99034.88;;;19.09;54.37
8039;BME280;4062;49.844;8.120;2023-06-19T06:43:41;99028.69;;;19.09;54.20
8039;BME280;4062;49.844;8.120;2023-06-19T06:45:48;99029.53;;;19.09;54.12
8039;BME280;4062;49.844;8.120;2023-06-19T06:47:50;99029.53;;;19.09;54.17
8039;BME280;4062;49.844;8.120;2023-06-19T06:49:51;99032.19;;;19.09;54.25
8039;BME280;4062;49.844;8.120;2023-06-19T06:51:52;99030.47;;;19.08;54.14
8039;BME280;4062;49.844;8.120;2023-06-19T06:53:54;99042.06;;;19.09;54.35
8039;BME280;4062;49.844;8.120;2023-06-19T06:55:57;99044.75;;;19.09;54.42
8039;BME280;4062;49.844;8.120;2023-06-19T06:57:58;99047.41;;;19.09;54.27
8039;BME280;4062;49.844;8.120;2023-06-19T07:00:00;99043.78;;;19.10;54.03
8039;BME280;4062;49.844;8.120;2023-06-19T07:02:01;99046.47;;;19.10;54.16
8039;BME280;4062;49.844;8.120;2023-06-19T07:04:03;99050.84;;;19.11;54.32
8039;BME280;4062;49.844;8.120;2023-06-19T07:06:05;99049.13;;;19.10;54.41
8039;BME280;4062;49.844;8.120;2023-06-19T07:08:06;99057.19;;;19.10;54.22
8039;BME280;4062;49.844;8.120;2023-06-19T07:10:08;99052.66;;;19.10;54.13
8039;BME280;4062;49.844;8.120;2023-06-19T07:12:10;99063.38;;;19.10;54.12
8039;BME280;4062;49.844;8.120;2023-06-19T07:14:11;99058.97;;;19.09;54.16
8039;BME280;4062;49.844;8.120;2023-06-19T07:16:13;99057.19;;;19.10;54.15
8039;BME280;4062;49.844;8.120;2023-06-19T07:18:15;99066.06;;;19.10;54.11
8039;BME280;4062;49.844;8.120;2023-06-19T07:20:16;99070.56;;;19.10;54.40
8039;BME280;4062;49.844;8.120;2023-06-19T07:22:18;99074.94;;;19.11;54.36
8039;BME280;4062;49.844;8.120;2023-06-19T07:24:19;99074.94;;;19.11;54.09
8039;BME280;4062;49.844;8.120;2023-06-19T07:26:21;99082.88;;;19.12;54.49
8039;BME280;4062;49.844;8.120;2023-06-19T07:28:22;99080.28;;;19.11;54.28
8039;BME280;4062;49.844;8.120;2023-06-19T07:30:24;99071.41;;;19.10;54.21
8039;BME280;4062;49.844;8.120;2023-06-19T07:32:25;99073.13;;;19.11;54.20
8039;BME280;4062;49.844;8.120;2023-06-19T07:34:26;99070.44;;;19.11;54.23
8039;BME280;4062;49.844;8.120;2023-06-19T07:36:28;99076.56;;;19.13;54.33
8039;BME280;4062;49.844;8.120;2023-06-19T07:38:29;99082.88;;;19.12;54.16
8039;BME280;4062;49.844;8.120;2023-06-19T07:40:31;99081.94;;;19.13;54.16
8039;BME280;4062;49.844;8.120;2023-06-19T07:42:32;99073.03;;;19.13;54.44
8039;BME280;4062;49.844;8.120;2023-06-19T07:44:34;99073.03;;;19.13;54.35
8039;BME280;4062;49.844;8.120;2023-06-19T07:46:35;99081.94;;;19.13;54.60
8039;BME280;4062;49.844;8.120;2023-06-19T07:48:36;99092.72;;;19.12;54.48
8039;BME280;4062;49.844;8.120;2023-06-19T07:50:38;99084.69;;;19.12;54.72
8039;BME280;4062;49.844;8.120;2023-06-19T07:52:39;99081.94;;;19.13;54.41
8039;BME280;4062;49.844;8.120;2023-06-19T07:54:54;99091.75;;;19.13;54.39
8039;BME280;4062;49.844;8.120;2023-06-19T07:56:56;99097.13;;;19.13;54.55
8039;BME280;4062;49.844;8.120;2023-06-19T07:58:57;99087.19;;;19.15;54.78
8039;BME280;4062;49.844;8.120;2023-06-19T08:00:59;99091.69;;;19.14;54.66
8039;BME280;4062;49.844;8.120;2023-06-19T08:03:00;99087.19;;;19.15;54.47
8039;BME280;4062;49.844;8.120;2023-06-19T08:05:01;99092.53;;;19.15;54.49
8039;BME280;4062;49.844;8.120;2023-06-19T08:07:04;99095.22;;;19.15;54.49
8039;BME280;4062;49.844;8.120;2023-06-19T08:09:05;99092.53;;;19.15;54.35
8039;BME280;4062;49.844;8.120;2023-06-19T08:11:07;99098.00;;;19.13;54.32
8039;BME280;4062;49.844;8.120;2023-06-19T08:13:08;99096.16;;;19.14;54.53
8039;BME280;4062;49.844;8.120;2023-06-19T08:15:10;99108.59;;;19.15;54.74
8039;BME280;4062;49.844;8.120;2023-06-19T08:17:12;99107.75;;;19.14;54.58
8039;BME280;4062;49.844;8.120;2023-06-19T08:19:13;99114.06;;;19.13;54.67
8039;BME280;4062;49.844;8.120;2023-06-19T08:21:15;99116.75;;;19.13;54.60
8039;BME280;4062;49.844;8.120;2023-06-19T08:23:16;99114.06;;;19.13;54.49
8039;BME280;4062;49.844;8.120;2023-06-19T08:25:17;99107.84;;;19.13;54.73
8039;BME280;4062;49.844;8.120;2023-06-19T08:27:19;99098.00;;;19.13;54.45
8039;BME280;4062;49.844;8.120;2023-06-19T08:29:20;99105.16;;;19.13;54.83
8039;BME280;4062;49.844;8.120;2023-06-19T08:31:21;99107.84;;;19.13;54.68
8039;BME280;4062;49.844;8.120;2023-06-19T08:33:28;99103.34;;;19.13;54.80
8039;BME280;4062;49.844;8.120;2023-06-19T08:35:29;99115.03;;;19.12;54.67
8039;BME280;4062;49.844;8.120;2023-06-19T08:37:31;99114.16;;;19.12;54.64
8039;BME280;4062;49.844;8.120;2023-06-19T08:39:32;99105.16;;;19.13;54.66
8039;BME280;4062;49.844;8.120;2023-06-19T08:41:35;99100.75;;;19.12;54.78
8039;BME280;4062;49.844;8.120;2023-06-19T08:43:37;99095.41;;;19.12;54.76
8039;BME280;4062;49.844;8.120;2023-06-19T08:45:39;99108.78;;;19.12;54.75
8039;BME280;4062;49.844;8.120;2023-06-19T08:47:40;99105.16;;;19.13;54.81
8039;BME280;4062;49.844;8.120;2023-06-19T08:49:42;99102.47;;;19.13;54.88
8039;BME280;4062;49.844;8.120;2023-06-19T08:51:43;99111.47;;;19.12;54.77
8039;BME280;4062;49.844;8.120;2023-06-19T08:53:47;99104.31;;;19.12;54.74
8039;BME280;4062;49.844;8.120;2023-06-19T08:55:49;99101.63;;;19.12;54.90
8039;BME280;4062;49.844;8.120;2023-06-19T08:57:52;99104.19;;;19.14;54.79
8039;BME280;4062;49.844;8.120;2023-06-19T08:59:53;99099.72;;;19.14;54.92
8039;BME280;4062;49.844;8.120;2023-06-19T09:01:55;99102.41;;;19.14;55.10
8039;BME280;4062;49.844;8.120;2023-06-19T09:04:14;99101.41;;;19.15;54.90
8039;BME280;4062;49.844;8.120;2023-06-19T09:06:16;99105.91;;;19.15;54.99
8039;BME280;4062;49.844;8.120;2023-06-19T09:08:19;99106.88;;;19.14;54.85
8039;BME280;4062;49.844;8.120;2023-06-19T09:10:21;99105.06;;;19.14;54.87
8039;BME280;4062;49.844;8.120;2023-06-19T09:12:24;99108.59;;;19.15;55.04
8039;BME280;4062;49.844;8.120;2023-06-19T09:14:40;99117.59;;;19.14;54.86
8039;BME280;4062;49.844;8.120;2023-06-19T09:16:42;99105.06;;;19.14;54.95
8039;BME280;4062;49.844;8.120;2023-06-19T09:18:45;99107.75;;;19.14;55.01
8039;BME280;4062;49.844;8.120;2023-06-19T09:20:53;99104.19;;;19.14;54.82
8039;BME280;4062;49.844;8.120;2023-06-19T09:22:56;99108.72;;;19.13;54.68
8039;BME280;4062;49.844;8.120;2023-06-19T09:25:01;99105.16;;;19.13;54.68
8039;BME280;4062;49.844;8.120;2023-06-19T09:27:15;99107.00;;;19.12;55.12
8039;BME280;4062;49.844;8.120;2023-06-19T09:29:19;99105.25;;;19.11;54.77
8039;BME280;4062;49.844;8.120;2023-06-19T09:31:30;99105.25;;;19.11;54.95
8039;BME280;4062;49.844;8.120;2023-06-19T09:33:33;99113.28;;;19.11;55.08
8039;BME280;4062;49.844;8.120;2023-06-19T09:35:35;99104.38;;;19.11;54.77
8039;BME280;4062;49.844;8.120;2023-06-19T09:37:39;99098.19;;;19.10;54.94
8039;BME280;4062;49.844;8.120;2023-06-19T09:39:42;99102.69;;;19.10;55.29
8039;BME280;4062;49.844;8.120;2023-06-19T09:41:47;99098.19;;;19.10;55.04
8039;BME280;4062;49.844;8.120;2023-06-19T09:43:55;99104.38;;;19.11;55.14
8039;BME280;4062;49.844;8.120;2023-06-19T09:46:01;99098.19;;;19.10;54.83
8039;BME280;4062;49.844;8.120;2023-06-19T09:48:04;99093.78;;;19.09;54.84
8039;BME280;4062;49.844;8.120;2023-06-19T09:50:28;99098.06;;;19.12;54.93
8039;BME280;4062;49.844;8.120;2023-06-19T09:52:30;99102.47;;;19.13;55.12
8039;BME280;4062;49.844;8.120;2023-06-19T09:54:38;99094.44;;;19.13;55.19
8039;BME280;4062;49.844;8.120;2023-06-19T09:56:40;99097.88;;;19.15;55.07
8039;BME280;4062;49.844;8.120;2023-06-19T09:58:43;99103.34;;;19.13;54.94
8039;BME280;4062;49.844;8.120;2023-06-19T10:00:46;99103.34;;;19.13;55.14
8039;BME280;4062;49.844;8.120;2023-06-19T10:02:49;99103.34;;;19.13;55.01
8039;BME280;4062;49.844;8.120;2023-06-19T10:04:55;99103.34;;;19.13;55.25
8039;BME280;4062;49.844;8.120;2023-06-19T10:06:57;99105.16;;;19.13;55.17
8039;BME280;4062;49.844;8.120;2023-06-19T10:09:17;99105.16;;;19.13;54.94
8039;BME280;4062;49.844;8.120;2023-06-19T10:11:19;99106.09;;;19.12;54.97
8039;BME280;4062;49.844;8.120;2023-06-19T10:13:20;99094.44;;;19.13;55.17
8039;BME280;4062;49.844;8.120;2023-06-19T10:15:27;99097.13;;;19.13;55.17
8039;BME280;4062;49.844;8.120;2023-06-19T10:17:30;99102.47;;;19.13;55.25
8039;BME280;4062;49.844;8.120;2023-06-19T10:19:33;99099.81;;;19.13;55.02
8039;BME280;4062;49.844;8.120;2023-06-19T10:21:45;99098.00;;;19.13;55.01
8039;BME280;4062;49.844;8.120;2023-06-19T10:24:01;99093.50;;;19.14;55.30
8039;BME280;4062;49.844;8.120;2023-06-19T10:26:03;99098.00;;;19.13;54.96
8039;BME280;4062;49.844;8.120;2023-06-19T10:28:34;99093.69;;;19.11;55.34
8039;BME280;4062;49.844;8.120;2023-06-19T10:30:36;99088.31;;;19.11;55.02
8039;BME280;4062;49.844;8.120;2023-06-19T10:32:37;99092.72;;;19.12;55.28
8039;BME280;4062;49.844;8.120;2023-06-19T10:34:38;99093.69;;;19.11;55.34
8039;BME280;4062;49.844;8.120;2023-06-19T10:36:40;99087.47;;;19.10;55.38
8039;BME280;4062;49.844;8.120;2023-06-19T10:38:41;99091.88;;;19.11;55.18
8039;BME280;4062;49.844;8.120;2023-06-19T10:40:48;99098.19;;;19.10;55.34
8039;BME280;4062;49.844;8.120;2023-06-19T10:42:49;99088.44;;;19.09;55.15
8039;BME280;4062;49.844;8.120;2023-06-19T10:44:51;99100.88;;;19.10;55.40
8039;BME280;4062;49.844;8.120;2023-06-19T10:46:53;99095.50;;;19.10;55.40
8039;BME280;4062;49.844;8.120;2023-06-19T10:48:55;99083.94;;;19.10;55.23
8039;BME280;4062;49.844;8.120;2023-06-19T10:51:03;99087.47;;;19.10;55.28
8039;BME280;4062;49.844;8.120;2023-06-19T10:53:05;99090.16;;;19.10;55.25
8039;BME280;4062;49.844;8.120;2023-06-19T10:55:07;99091.00;;;19.11;55.20
8039;BME280;4062;49.844;8.120;2023-06-19T10:57:08;99094.66;;;19.10;55.30
8039;BME280;4062;49.844;8.120;2023-06-19T10:59:10;99088.31;;;19.11;55.32
8039;BME280;4062;49.844;8.120;2023-06-19T11:01:15;99082.97;;;19.11;55.46
8039;BME280;4062;49.844;8.120;2023-06-19T11:03:17;99080.28;;;19.11;55.33
8039;BME280;4062;49.844;8.120;2023-06-19T11:05:20;99082.00;;;19.12;55.43
8039;BME280;4062;49.844;8.120;2023-06-19T11:07:23;99075.81;;;19.11;55.32
8039;BME280;4062;49.844;8.120;2023-06-19T11:09:24;99075.81;;;19.11;55.31
8039;BME280;4062;49.844;8.120;2023-06-19T11:11:45;99069.50;;;19.12;55.36